Terminal Aerodrome Forecast
Issued by NWS

Home | Current Version | Previous Version | Text Only | Print | Product List | Glossary On
Versions: 1 2 3 4 5 6 7 8 9 10 11 12 13 14 15 16 17 18
000
FTUS43 KLSX 290500
TAFSUS
TAF
KSUS 290527Z 2906/3006 20009KT P6SM BKN150 WS018/23040KT
     FM291000 26014G20KT P6SM BKN100
     FM291200 29018G28KT P6SM OVC015
     FM291700 31017G26KT P6SM BKN020
     FM292100 32012KT P6SM SCT020=

USA.gov is the U.S. government's official web portal to all federal, state and local government web resources and services.